Weather at Frederick Municipal Airport

Public forecast

Using degrees Fahrenheit for public forecast. Weather courtesy of forecast.io.

Current aviation weather report (METAR) for Frederick Municipal Airport

Retrieved 2021/03/03 23:47 UTC (2 hours ago):

KFDK 032347Z 27008KT 10SM CLR 14/M06 A2988

Closest aviation forecast (TAF) to Frederick Municipal Airport

Forecast is more than 6 hours old.

Closest forecast is Eastern WV Regional Airport/Shepherd Field, 28.3 nm (52.5 km) W. Retrieved 2021/03/03 18:22 UTC (7 hours ago):

TAF KMRB 031720Z 0318/0418 27007KT P6SM SKC FM040500 30006KT P6SM FEW250 FM041400 32011G21KT P6SM SCT035